createdAt,value
2022-10-13T00:00:49.020Z,31.65
2022-10-13T00:03:16.640Z,33.33
2022-10-13T00:05:54.616Z,30.58
2022-10-13T00:08:22.596Z,35.55
2022-10-13T00:10:57.549Z,30.52
2022-10-13T00:13:24.818Z,25.02
2022-10-13T00:15:58.652Z,24.70
2022-10-13T00:18:25.872Z,24.52
2022-10-13T00:20:53.008Z,24.45
2022-10-13T00:23:26.582Z,25.30
2022-10-13T00:26:16.492Z,33.95
2022-10-13T00:28:52.802Z,22.58
2022-10-13T00:31:20.215Z,24.15
2022-10-13T00:33:47.478Z,31.83
2022-10-13T00:36:21.756Z,25.88
2022-10-13T00:38:49.153Z,24.67
2022-10-13T00:41:16.232Z,28.05
2022-10-13T00:44:08.639Z,30.42
2022-10-13T00:46:37.301Z,28.90
2022-10-13T00:49:20.695Z,36.08
2022-10-13T00:51:49.675Z,32.53
2022-10-13T00:54:18.799Z,21.38
2022-10-13T00:56:52.670Z,25.67
2022-10-13T00:59:29.508Z,32.88
2022-10-13T01:02:04.679Z,23.73
2022-10-13T01:04:33.872Z,27.35
2022-10-13T01:07:01.127Z,32.08
2022-10-13T01:09:42.565Z,23.20
2022-10-13T01:12:21.787Z,32.38
2022-10-13T01:15:02.609Z,26.05
2022-10-13T01:17:45.078Z,39.83
2022-10-13T01:23:34.575Z,35.05
2022-10-13T01:29:51.555Z,33.55
2022-10-13T01:32:31.508Z,35.10
2022-10-13T01:35:11.580Z,46.35
2022-10-13T01:37:51.508Z,30.48
2022-10-13T01:40:31.575Z,34.35
2022-10-13T01:43:09.510Z,39.85
2022-10-13T01:45:39.330Z,36.00
2022-10-13T01:48:06.733Z,39.67
2022-10-13T01:50:41.577Z,35.90
2022-10-13T01:53:16.503Z,29.52
2022-10-13T01:55:50.734Z,28.77
2022-10-13T01:58:24.543Z,29.50
2022-10-13T02:00:59.231Z,37.25
2022-10-13T02:06:47.438Z,31.58
2022-10-13T02:09:21.525Z,34.47
2022-10-13T02:12:00.757Z,41.63
2022-10-13T02:14:47.656Z,40.35
2022-10-13T02:17:22.607Z,27.63
2022-10-13T02:19:56.513Z,32.30
2022-10-13T02:22:33.612Z,28.23
2022-10-13T02:25:07.551Z,31.23
2022-10-13T02:27:41.737Z,40.42
2022-10-13T02:30:30.518Z,37.03
2022-10-13T02:33:04.594Z,31.38
2022-10-13T02:35:39.490Z,44.35
2022-10-13T02:38:06.891Z,31.02
2022-10-13T02:40:40.547Z,29.40
2022-10-13T02:43:07.752Z,30.92
2022-10-13T02:45:34.916Z,29.95
2022-10-13T02:48:08.810Z,34.40
2022-10-13T02:50:36.146Z,25.38
2022-10-13T02:53:18.711Z,33.45
2022-10-13T02:55:48.377Z,29.15
2022-10-13T02:58:15.669Z,35.13
2022-10-13T03:00:49.866Z,36.97
2022-10-13T03:03:17.158Z,29.13
2022-10-13T03:05:44.715Z,29.50
2022-10-13T03:10:45.924Z,43.53
2022-10-13T03:13:19.620Z,33.72
2022-10-13T03:15:47.627Z,30.15
2022-10-13T03:18:15.142Z,43.83
2022-10-13T03:20:48.709Z,36.08
2022-10-13T03:23:16.022Z,31.63
2022-10-13T03:25:56.627Z,42.03
2022-10-13T03:28:37.580Z,39.85
2022-10-13T03:31:12.685Z,41.75
2022-10-13T03:33:47.515Z,43.42
2022-10-13T03:36:21.763Z,34.70
2022-10-13T03:38:49.021Z,36.40
2022-10-13T03:41:17.605Z,40.05
2022-10-13T03:43:51.635Z,47.72
2022-10-13T03:46:25.523Z,40.65
2022-10-13T03:48:59.734Z,45.00
2022-10-13T03:51:26.916Z,27.38
2022-10-13T03:53:54.275Z,35.65
2022-10-13T03:56:32.614Z,34.72
2022-10-13T03:59:00.619Z,44.60
2022-10-13T04:01:35.770Z,48.42
2022-10-13T04:04:03.369Z,40.45
2022-10-13T04:06:31.564Z,36.20
2022-10-13T04:09:05.641Z,40.97
2022-10-13T04:11:32.966Z,45.53
2022-10-13T04:14:00.118Z,29.88
2022-10-13T04:16:35.789Z,33.70
2022-10-13T04:19:05.283Z,47.10
2022-10-13T04:21:33.606Z,47.67
2022-10-13T04:24:07.698Z,38.70
2022-10-13T04:26:46.666Z,48.75
2022-10-13T04:29:20.651Z,27.42
2022-10-13T04:31:47.846Z,36.17
2022-10-13T04:34:14.947Z,46.90
2022-10-13T04:36:48.649Z,35.50
2022-10-13T04:39:15.855Z,47.53
2022-10-13T04:41:42.942Z,37.08
2022-10-13T04:44:16.762Z,32.58
2022-10-13T04:46:43.939Z,38.92
2022-10-13T04:49:11.311Z,33.67
2022-10-13T04:51:44.616Z,25.20
2022-10-13T04:54:11.775Z,39.90
2022-10-13T04:56:45.735Z,32.60
2022-10-13T04:59:12.945Z,39.45
2022-10-13T05:01:40.524Z,34.30
2022-10-13T05:07:05.190Z,41.00
2022-10-13T05:09:36.942Z,43.55
2022-10-13T05:12:04.266Z,40.17
2022-10-13T05:14:33.323Z,41.60
2022-10-13T05:17:06.629Z,41.13
2022-10-13T05:19:33.812Z,38.30
2022-10-13T05:22:07.674Z,38.40
2022-10-13T05:24:37.705Z,45.72
2022-10-13T05:27:16.713Z,43.80
2022-10-13T05:29:50.873Z,33.95
2022-10-13T05:32:24.691Z,34.85
2022-10-13T05:34:51.876Z,31.00
2022-10-13T05:37:19.331Z,34.30
2022-10-13T05:39:52.732Z,35.83
2022-10-13T05:42:20.255Z,28.35
2022-10-13T05:44:54.743Z,45.75
2022-10-13T05:47:26.783Z,34.55
2022-10-13T05:49:53.865Z,41.05
2022-10-13T05:52:27.863Z,41.08
2022-10-13T05:54:57.274Z,30.92
2022-10-13T05:57:35.745Z,35.13
2022-10-13T06:00:05.195Z,31.05
2022-10-13T06:02:35.101Z,35.35
2022-10-13T06:05:10.790Z,36.70
2022-10-13T06:07:37.995Z,32.28
2022-10-13T06:10:11.774Z,32.67
2022-10-13T06:12:39.156Z,40.15
2022-10-13T06:15:06.455Z,31.88
2022-10-13T06:17:42.692Z,29.08
2022-10-13T06:20:10.228Z,28.75
2022-10-13T06:25:11.798Z,29.35
2022-10-13T06:27:54.711Z,30.20
2022-10-13T06:30:28.924Z,31.30
2022-10-13T06:32:56.243Z,38.10
2022-10-13T06:35:23.946Z,33.55
2022-10-13T06:40:27.014Z,29.33
2022-10-13T06:43:00.775Z,34.45
2022-10-13T06:45:27.940Z,30.48
2022-10-13T06:47:55.277Z,22.23
2022-10-13T06:50:29.677Z,28.50
2022-10-13T06:52:56.998Z,36.63
2022-10-13T06:55:30.881Z,34.80
2022-10-13T06:57:58.067Z,35.03
2022-10-13T07:00:25.223Z,36.55
2022-10-13T07:02:59.767Z,31.38
2022-10-13T07:05:26.949Z,24.73
2022-10-13T07:08:00.951Z,30.52
2022-10-13T07:10:28.319Z,47.08
2022-10-13T07:12:55.487Z,30.95
2022-10-13T07:15:31.917Z,34.58
2022-10-13T07:17:59.174Z,23.50
2022-10-13T07:20:26.532Z,19.65
2022-10-13T07:23:00.817Z,31.33
2022-10-13T07:25:28.104Z,27.75
2022-10-13T07:28:07.823Z,32.38
2022-10-13T07:30:35.088Z,28.77
2022-10-13T07:33:02.896Z,26.27
2022-10-13T07:35:36.785Z,27.83
2022-10-13T07:38:04.074Z,27.98
2022-10-13T07:40:31.180Z,26.55
2022-10-13T07:43:04.876Z,27.45
2022-10-13T07:45:32.225Z,36.08
2022-10-13T07:47:59.383Z,29.88
2022-10-13T07:50:32.774Z,27.70
2022-10-13T07:53:00.015Z,25.88
2022-10-13T07:55:33.757Z,42.80
2022-10-13T07:58:04.688Z,25.17
2022-10-13T08:00:31.910Z,31.70
2022-10-13T08:03:05.829Z,22.38
2022-10-13T08:05:33.009Z,26.30
2022-10-13T08:08:00.106Z,22.30
2022-10-13T08:10:35.710Z,27.90
2022-10-13T08:13:02.992Z,23.02
2022-10-13T08:15:36.810Z,33.72
2022-10-13T08:18:03.984Z,25.17
2022-10-13T08:20:43.391Z,24.02
2022-10-13T08:23:11.097Z,27.15
2022-10-13T08:25:45.838Z,30.42
2022-10-13T08:28:22.791Z,22.02
2022-10-13T08:31:00.855Z,22.48
2022-10-13T08:33:28.120Z,21.70
2022-10-13T08:35:55.238Z,24.25
2022-10-13T08:38:28.733Z,26.27
2022-10-13T08:40:55.933Z,26.38
2022-10-13T08:43:30.850Z,32.70
2022-10-13T08:46:00.345Z,31.85
2022-10-13T08:51:31.393Z,22.90
2022-10-13T08:54:05.663Z,23.52
2022-10-13T08:56:34.583Z,20.65
2022-10-13T08:59:03.329Z,23.70
2022-10-13T09:01:42.941Z,25.60
2022-10-13T09:04:10.187Z,21.10
2022-10-13T09:06:40.345Z,26.92
2022-10-13T09:09:22.019Z,23.58
2022-10-13T09:11:50.435Z,19.08
2022-10-13T09:14:37.891Z,15.75
2022-10-13T09:19:48.888Z,18.10
2022-10-13T09:22:27.368Z,16.42
2022-10-13T09:25:16.813Z,16.40
2022-10-13T09:27:53.780Z,22.42
2022-10-13T09:30:33.738Z,20.85
2022-10-13T09:33:23.642Z,17.33
2022-10-13T09:36:17.749Z,19.42
2022-10-13T09:38:46.326Z,17.50
2022-10-13T09:41:16.444Z,21.25
2022-10-13T09:43:52.715Z,24.60
2022-10-13T09:46:19.827Z,20.98
2022-10-13T09:48:56.758Z,16.75
2022-10-13T09:51:35.682Z,16.88
2022-10-13T09:54:09.772Z,15.52
2022-10-13T09:56:44.660Z,15.15
2022-10-13T09:59:28.778Z,22.02
2022-10-13T10:01:56.975Z,15.55
2022-10-13T10:04:32.758Z,28.38
2022-10-13T10:07:00.007Z,18.92
2022-10-13T10:09:54.718Z,18.60
2022-10-13T10:12:27.727Z,22.10
2022-10-13T10:15:01.868Z,17.30
2022-10-13T10:17:33.985Z,27.92
2022-10-13T10:20:26.880Z,15.52
2022-10-13T10:23:01.244Z,16.92
2022-10-13T10:25:45.808Z,19.33
2022-10-13T10:28:44.749Z,20.33
2022-10-13T10:31:30.792Z,24.42
2022-10-13T10:34:03.939Z,18.23
2022-10-13T10:36:56.752Z,17.20
2022-10-13T10:39:39.239Z,20.92
2022-10-13T10:42:24.760Z,18.08
2022-10-13T10:44:53.888Z,17.67
2022-10-13T10:47:39.899Z,18.45
2022-10-13T10:50:08.103Z,17.17
2022-10-13T10:52:53.997Z,18.42
2022-10-13T10:55:23.869Z,16.73
2022-10-13T10:58:06.804Z,19.65
2022-10-13T11:00:38.137Z,21.92
2022-10-13T11:03:39.845Z,19.65
2022-10-13T11:06:28.847Z,18.45
2022-10-13T11:08:56.128Z,23.23
2022-10-13T11:11:26.579Z,14.23
2022-10-13T11:14:00.771Z,26.52
2022-10-13T11:16:36.667Z,22.52
2022-10-13T11:19:16.918Z,16.30
2022-10-13T11:21:53.426Z,19.38
2022-10-13T11:24:55.914Z,14.38
2022-10-13T11:27:49.685Z,16.10
2022-10-13T11:30:41.980Z,18.42
2022-10-13T11:33:27.985Z,15.55
2022-10-13T11:36:01.924Z,12.95
2022-10-13T11:38:35.721Z,21.65
2022-10-13T11:41:21.908Z,18.92
2022-10-13T11:44:04.495Z,20.17
2022-10-13T11:46:56.785Z,19.58
2022-10-13T11:49:30.791Z,14.40
2022-10-13T11:52:07.910Z,12.05
2022-10-13T11:54:37.789Z,17.02
2022-10-13T11:57:24.853Z,19.23
2022-10-13T12:00:01.691Z,19.25
2022-10-13T12:02:29.493Z,17.73
2022-10-13T12:05:13.727Z,21.33
2022-10-13T12:07:43.096Z,16.40
2022-10-13T12:10:24.708Z,16.90
2022-10-13T12:12:52.179Z,14.25
2022-10-13T12:15:44.762Z,15.10
2022-10-13T12:18:27.187Z,15.95
2022-10-13T12:21:04.758Z,22.13
2022-10-13T12:23:33.119Z,14.07
2022-10-13T12:26:00.666Z,21.42
2022-10-13T12:31:02.035Z,22.67
2022-10-13T12:33:37.820Z,19.33
2022-10-13T12:36:21.852Z,20.90
2022-10-13T12:38:58.919Z,11.75
2022-10-13T12:41:46.257Z,15.43
2022-10-13T12:44:30.840Z,16.17
2022-10-13T12:46:59.262Z,17.48
2022-10-13T12:49:27.654Z,20.77
2022-10-13T12:52:03.904Z,18.55
2022-10-13T12:54:35.580Z,15.57
2022-10-13T12:57:24.824Z,16.20
2022-10-13T12:59:52.090Z,19.95
2022-10-13T13:02:33.078Z,18.42
2022-10-13T13:05:00.327Z,23.15
2022-10-13T13:07:37.799Z,25.10
2022-10-13T13:10:07.890Z,15.25
2022-10-13T13:12:42.895Z,16.92
2022-10-13T13:15:22.514Z,19.80
2022-10-13T13:17:58.950Z,22.73
2022-10-13T13:20:33.463Z,17.60
2022-10-13T13:23:07.071Z,19.88
2022-10-13T13:25:34.363Z,17.77
2022-10-13T13:28:24.900Z,21.15
2022-10-13T13:30:52.174Z,20.98
2022-10-13T13:33:19.268Z,22.58
2022-10-13T13:35:55.802Z,22.35
2022-10-13T13:38:23.038Z,20.25
2022-10-13T13:41:00.144Z,25.23
2022-10-13T13:43:30.381Z,20.27
2022-10-13T13:46:03.996Z,20.60
2022-10-13T13:48:31.170Z,17.15
2022-10-13T13:50:58.293Z,17.98
2022-10-13T13:53:31.823Z,23.73
2022-10-13T13:55:59.002Z,30.15
2022-10-13T13:58:32.852Z,33.00
2022-10-13T14:01:00.516Z,23.70
2022-10-13T14:03:27.837Z,24.40
2022-10-13T14:06:01.830Z,20.90
2022-10-13T14:08:32.686Z,21.85
2022-10-13T14:11:07.001Z,25.27
2022-10-13T14:13:34.518Z,18.25
2022-10-13T14:16:02.065Z,18.10
2022-10-13T14:18:35.837Z,24.02
2022-10-13T14:21:07.142Z,20.40
2022-10-13T14:23:40.867Z,21.02
2022-10-13T14:26:09.567Z,19.23
2022-10-13T14:28:50.050Z,34.25
2022-10-13T14:31:17.809Z,28.42
2022-10-13T14:33:44.923Z,19.15
2022-10-13T14:36:18.986Z,24.95
2022-10-13T14:38:46.220Z,26.58
2022-10-13T14:41:13.391Z,21.90
2022-10-13T14:43:46.856Z,32.13
2022-10-13T14:46:14.161Z,19.30
2022-10-13T14:48:47.972Z,31.27
2022-10-13T15:44:04.993Z,21.80
2022-10-13T15:46:32.095Z,29.45
2022-10-13T15:48:59.980Z,16.20
2022-10-13T15:51:33.855Z,19.83
2022-10-13T15:54:01.323Z,21.90
2022-10-13T15:56:34.855Z,21.70
2022-10-13T15:59:01.970Z,28.98
2022-10-13T16:01:29.199Z,30.23
2022-10-13T16:04:02.983Z,28.83
2022-10-13T16:06:30.300Z,32.08
2022-10-13T16:08:57.394Z,25.60
2022-10-13T16:11:30.968Z,31.25
2022-10-13T16:14:04.779Z,18.50
2022-10-13T16:16:38.944Z,26.60
2022-10-13T16:19:06.122Z,27.55
2022-10-13T16:21:33.216Z,28.58
2022-10-13T16:24:06.924Z,28.50
2022-10-13T16:26:34.237Z,30.20
2022-10-13T16:29:01.373Z,18.63
2022-10-13T16:31:35.184Z,18.92
2022-10-13T16:34:02.364Z,19.48
2022-10-13T16:36:29.463Z,27.08
2022-10-13T16:39:03.017Z,25.20
2022-10-13T16:41:30.195Z,23.77
2022-10-13T16:44:10.920Z,21.08
2022-10-13T16:46:38.111Z,20.92
2022-10-13T16:49:05.268Z,25.25
2022-10-13T16:51:39.094Z,16.83
2022-10-13T16:54:06.803Z,38.15
2022-10-13T16:56:34.307Z,35.05
2022-10-13T16:59:09.901Z,23.70
2022-10-13T17:01:37.147Z,22.10
2022-10-13T17:04:04.807Z,16.27
2022-10-13T17:09:12.831Z,24.88
2022-10-13T17:11:46.961Z,20.83
2022-10-13T17:14:14.232Z,14.38
2022-10-13T17:16:47.925Z,23.33
2022-10-13T17:19:15.090Z,23.85
2022-10-13T17:21:42.173Z,20.63
2022-10-13T17:24:15.983Z,22.10
2022-10-13T17:26:43.212Z,22.05
2022-10-13T17:29:10.649Z,25.33
2022-10-13T17:31:44.946Z,28.15
2022-10-13T17:34:12.237Z,24.92
2022-10-13T17:36:39.348Z,23.15
2022-10-13T17:39:14.511Z,19.30
2022-10-13T17:41:42.070Z,27.30
2022-10-13T17:46:54.425Z,23.50
2022-10-13T17:49:21.523Z,21.42
2022-10-13T17:51:57.928Z,20.77
2022-10-13T17:54:25.191Z,28.40
2022-10-13T17:56:58.958Z,22.20
2022-10-13T17:59:26.186Z,25.58
2022-10-13T18:01:53.347Z,29.48
2022-10-13T18:04:28.971Z,26.17
2022-10-13T18:06:56.264Z,32.50
2022-10-13T18:09:31.218Z,29.23
2022-10-13T18:11:58.707Z,36.25
2022-10-13T18:14:25.938Z,28.83
2022-10-13T18:16:59.916Z,28.10
2022-10-13T18:19:27.089Z,25.25
2022-10-13T18:22:00.932Z,26.50
2022-10-13T18:24:28.054Z,24.25
2022-10-13T18:26:55.341Z,21.13
2022-10-13T18:29:28.910Z,28.73
2022-10-13T18:31:59.182Z,26.33
2022-10-13T18:34:32.953Z,24.35
2022-10-13T18:37:00.174Z,29.95
2022-10-13T18:39:28.602Z,30.08
2022-10-13T18:42:03.040Z,25.58
2022-10-13T18:44:36.961Z,28.17
2022-10-13T18:47:10.969Z,28.55
2022-10-13T18:49:38.157Z,20.30
2022-10-13T18:52:11.989Z,24.25
2022-10-13T18:54:39.098Z,27.60
2022-10-13T18:57:13.180Z,25.15
2022-10-13T18:59:40.275Z,27.98
2022-10-13T19:02:07.464Z,24.17
2022-10-13T19:04:42.930Z,25.52
2022-10-13T19:07:10.095Z,26.80
2022-10-13T19:09:44.432Z,27.70
2022-10-13T19:12:11.937Z,26.75
2022-10-13T19:17:13.188Z,22.23
2022-10-13T19:19:41.442Z,21.95
2022-10-13T19:22:09.953Z,21.02
2022-10-13T19:24:43.968Z,19.27
2022-10-13T19:27:11.270Z,24.38
2022-10-13T19:29:38.401Z,32.90
2022-10-13T19:32:12.088Z,19.20
2022-10-13T19:34:39.375Z,27.33
2022-10-13T19:37:06.560Z,20.67
2022-10-13T19:39:41.119Z,24.27
2022-10-13T19:42:14.847Z,24.05
2022-10-13T19:44:49.248Z,23.30
2022-10-13T19:47:23.192Z,25.17
2022-10-13T19:49:56.961Z,24.55
2022-10-13T19:52:33.864Z,20.80
2022-10-13T19:55:07.940Z,34.78
2022-10-13T19:57:41.872Z,31.15
2022-10-13T20:00:09.181Z,20.83
2022-10-13T20:02:42.856Z,33.47
2022-10-13T20:05:10.064Z,19.98
2022-10-13T20:07:44.122Z,25.70
2022-10-13T20:10:11.194Z,25.45
2022-10-13T20:12:52.049Z,18.30
2022-10-13T20:15:25.960Z,22.50
2022-10-13T20:18:00.059Z,21.88
2022-10-13T20:20:33.863Z,22.17
2022-10-13T20:23:07.935Z,20.98
2022-10-13T20:25:44.884Z,24.48
2022-10-13T20:28:18.992Z,25.73
2022-10-13T20:30:46.108Z,34.25
2022-10-13T20:33:20.032Z,22.42
2022-10-13T20:35:47.126Z,28.35
2022-10-13T20:38:14.419Z,27.40
2022-10-13T20:40:48.032Z,25.27
2022-10-13T20:43:34.908Z,28.85
2022-10-13T20:46:09.970Z,25.90
2022-10-13T20:48:58.185Z,19.73
2022-10-13T20:51:31.968Z,25.45
2022-10-13T20:54:05.880Z,26.35
2022-10-13T20:56:55.039Z,31.27
2022-10-13T20:59:35.895Z,29.63
2022-10-13T21:02:10.054Z,30.90
2022-10-13T21:04:43.885Z,21.35
2022-10-13T21:07:18.356Z,37.30
2022-10-13T21:09:47.497Z,25.00
2022-10-13T21:12:17.339Z,28.10
2022-10-13T21:14:50.980Z,27.42
2022-10-13T21:17:24.886Z,34.72
2022-10-13T21:19:58.959Z,24.92
2022-10-13T21:22:32.896Z,32.83
2022-10-13T21:25:07.149Z,26.33
2022-10-13T21:27:34.324Z,30.92
2022-10-13T21:30:01.427Z,32.70
2022-10-13T21:32:36.968Z,30.27
2022-10-13T21:35:11.065Z,30.92
2022-10-13T21:37:39.099Z,34.65
2022-10-13T21:40:06.494Z,28.25
2022-10-13T21:42:41.038Z,31.02
2022-10-13T21:45:14.937Z,35.55
2022-10-13T21:47:49.172Z,30.00
2022-10-13T21:50:16.434Z,34.22
2022-10-13T21:52:43.541Z,26.90
2022-10-13T21:55:17.007Z,33.08
2022-10-13T21:57:44.205Z,36.60
2022-10-13T22:00:17.994Z,36.28
2022-10-13T22:02:45.120Z,27.15
2022-10-13T22:05:12.905Z,35.30
2022-10-13T22:07:46.989Z,31.50
2022-10-13T22:10:14.165Z,32.33
2022-10-13T22:12:48.033Z,36.53
2022-10-13T22:15:15.232Z,39.95
2022-10-13T22:17:42.321Z,38.35
2022-10-13T22:20:16.002Z,27.80
2022-10-13T22:22:43.231Z,33.30
2022-10-13T22:25:17.024Z,35.03
2022-10-13T22:27:44.186Z,39.85
2022-10-13T22:30:11.557Z,40.50
2022-10-13T22:32:45.068Z,46.72
2022-10-13T22:35:12.257Z,45.65
2022-10-13T22:37:46.008Z,40.03
2022-10-13T22:40:13.241Z,40.83
2022-10-13T22:42:47.085Z,47.97
2022-10-13T22:45:20.962Z,44.13
2022-10-13T22:47:58.033Z,44.38
2022-10-13T22:50:25.204Z,41.20
2022-10-13T22:52:52.469Z,39.35
2022-10-13T22:55:26.085Z,53.67
2022-10-13T22:57:53.287Z,39.55
2022-10-13T23:00:20.482Z,49.63
2022-10-13T23:02:54.108Z,48.55
2022-10-13T23:05:21.278Z,51.25
2022-10-13T23:07:55.149Z,43.47
2022-10-13T23:10:22.380Z,41.80
2022-10-13T23:12:49.512Z,48.15
2022-10-13T23:15:23.002Z,54.95
2022-10-13T23:17:50.221Z,53.55
2022-10-13T23:20:24.081Z,48.65
2022-10-13T23:22:51.239Z,57.88
2022-10-13T23:25:18.339Z,51.85
2022-10-13T23:27:52.129Z,44.88
2022-10-13T23:30:19.403Z,44.40
2022-10-13T23:32:53.080Z,51.70
2022-10-13T23:35:20.246Z,48.95
2022-10-13T23:37:47.350Z,46.20
2022-10-13T23:40:21.104Z,47.72
2022-10-13T23:42:48.303Z,59.13
2022-10-13T23:45:22.080Z,51.60
2022-10-13T23:47:56.024Z,73.18
2022-10-13T23:50:30.033Z,57.72
2022-10-13T23:52:57.193Z,60.20
2022-10-13T23:55:31.031Z,61.03
2022-10-13T23:57:58.203Z,54.85
